CCA986 KSFO-ZBAA
Flight info
| Callsign | CCA986 |
|---|---|
| Flight time | N/A |
| Altitude | 30000 |
| Route | GNNRR3 AMAKR DCT REDWD DCT 41N130W 46N140W/N0497F320 50N150W 53N160W DCT DUT/N0489F340 DCT DRAPP DCT ONEIL DCT HEDMI M523 IGPAK/N0483F360 M523 IPGUD Y800 MUBTO Y889 DAIGO Y88 TEPEX Y16 SAPRA Y685 KPO/N0483F380 Y685 SEL Y697 AGAVO/K0895S1160 A591 IKEKA W4 HCH W200 DOVIV W55 DUMAP DUMAP9Z |
| Aircraft | B77W/H-SDE1E2E3FGHIJ2J3J4J5M1RWXY/LB1D1 |
Departure
| Time | N/A |
|---|---|
| Airport | San Francisco International Airport (KSFO) |
Arrival
| Time | 2026-05-06 21:06 |
|---|---|
| Airport | Beijing Capital International Airport (ZBAA) |
| Time | Latitude | Longitude | Altitude | Speed | Heading |
|---|---|---|---|---|---|
| 2026-05-06 18:53 | 35.90696 | 132.40608 | 36082 ft | 445 kts | 265° |
| 2026-05-06 18:53 | 35.90375 | 132.33200 | 36072 ft | 448 kts | 266° |
| 2026-05-06 18:54 | 35.90043 | 132.25527 | 36078 ft | 449 kts | 266° |
| 2026-05-06 18:54 | 35.89706 | 132.17824 | 36076 ft | 451 kts | 266° |
| 2026-05-06 18:55 | 35.89363 | 132.10116 | 36074 ft | 453 kts | 266° |
| 2026-05-06 18:55 | 35.89014 | 132.02374 | 36074 ft | 454 kts | 266° |
| 2026-05-06 18:56 | 35.88657 | 131.94589 | 36066 ft | 455 kts | 266° |
| 2026-05-06 18:56 | 35.88296 | 131.86802 | 36074 ft | 455 kts | 266° |
| 2026-05-06 18:57 | 35.87931 | 131.79065 | 36071 ft | 455 kts | 266° |
| 2026-05-06 18:57 | 35.87558 | 131.71266 | 36066 ft | 457 kts | 268° |
| 2026-05-06 18:58 | 35.87181 | 131.63468 | 36072 ft | 458 kts | 268° |
| 2026-05-06 18:58 | 35.86797 | 131.55611 | 36063 ft | 460 kts | 268° |
| 2026-05-06 18:59 | 35.86404 | 131.47738 | 36060 ft | 461 kts | 268° |
| 2026-05-06 18:59 | 35.86007 | 131.39849 | 36054 ft | 462 kts | 268° |
| 2026-05-06 19:00 | 35.85603 | 131.31937 | 36056 ft | 463 kts | 269° |
| 2026-05-06 19:00 | 35.85193 | 131.24007 | 36065 ft | 464 kts | 269° |
| 2026-05-06 19:01 | 35.84778 | 131.16059 | 36045 ft | 465 kts | 268° |
| 2026-05-06 19:01 | 35.84356 | 131.08114 | 36062 ft | 465 kts | 269° |
| 2026-05-06 19:02 | 35.83929 | 131.00157 | 36065 ft | 466 kts | 269° |
| 2026-05-06 19:02 | 35.83497 | 130.92187 | 36060 ft | 466 kts | 269° |
| 2026-05-06 19:03 | 35.83059 | 130.84215 | 36056 ft | 466 kts | 269° |
| 2026-05-06 19:03 | 35.82627 | 130.76376 | 36040 ft | 466 kts | 270° |
| 2026-05-06 19:04 | 35.82831 | 130.68456 | 36056 ft | 461 kts | 280° |
| 2026-05-06 19:04 | 35.83850 | 130.60653 | 36059 ft | 461 kts | 281° |
| 2026-05-06 19:05 | 35.84875 | 130.52856 | 36047 ft | 461 kts | 281° |
| 2026-05-06 19:05 | 35.85873 | 130.45047 | 36048 ft | 461 kts | 281° |
| 2026-05-06 19:06 | 35.86854 | 130.37235 | 36045 ft | 461 kts | 281° |
| 2026-05-06 19:06 | 35.87827 | 130.29427 | 36045 ft | 461 kts | 281° |
| 2026-05-06 19:07 | 35.88797 | 130.21618 | 36047 ft | 460 kts | 281° |
| 2026-05-06 19:07 | 35.89759 | 130.13826 | 36042 ft | 459 kts | 281° |
| 2026-05-06 19:08 | 35.90716 | 130.06038 | 36029 ft | 459 kts | 281° |
| 2026-05-06 19:08 | 35.91666 | 129.98262 | 36037 ft | 459 kts | 281° |
| 2026-05-06 19:09 | 35.92613 | 129.90470 | 36023 ft | 459 kts | 281° |
| 2026-05-06 19:09 | 35.93554 | 129.82690 | 36027 ft | 459 kts | 281° |
| 2026-05-06 19:10 | 35.94476 | 129.74952 | 36028 ft | 459 kts | 281° |
| 2026-05-06 19:10 | 35.95396 | 129.67167 | 36017 ft | 458 kts | 281° |
| 2026-05-06 19:11 | 35.96310 | 129.59399 | 36007 ft | 457 kts | 281° |
| 2026-05-06 19:11 | 35.97339 | 129.51673 | 36004 ft | 453 kts | 288° |
| 2026-05-06 19:12 | 35.99641 | 129.44488 | 36081 ft | 451 kts | 299° |
| 2026-05-06 19:12 | 36.01239 | 129.41165 | 36382 ft | 449 kts | 306° |
| 2026-05-06 19:12 | 36.03041 | 129.38030 | 36746 ft | 447 kts | 307° |
| 2026-05-06 19:12 | 36.04860 | 129.34932 | 37125 ft | 445 kts | 307° |
| 2026-05-06 19:13 | 36.06668 | 129.31861 | 37704 ft | 438 kts | 307° |
| 2026-05-06 19:13 | 36.08451 | 129.28814 | 38054 ft | 438 kts | 306° |
| 2026-05-06 19:13 | 36.10241 | 129.25735 | 37999 ft | 443 kts | 306° |
| 2026-05-06 19:14 | 36.13822 | 129.19521 | 37981 ft | 442 kts | 306° |
| 2026-05-06 19:14 | 36.17364 | 129.13341 | 37996 ft | 439 kts | 306° |
| 2026-05-06 19:15 | 36.20890 | 129.07177 | 37993 ft | 438 kts | 306° |
| 2026-05-06 19:15 | 36.24399 | 129.01035 | 37998 ft | 437 kts | 306° |
| 2026-05-06 19:16 | 36.27905 | 128.94887 | 37994 ft | 436 kts | 306° |
| 2026-05-06 19:16 | 36.30813 | 128.89782 | 37994 ft | 436 kts | 306° |
| 2026-05-06 19:17 | 36.34308 | 128.83636 | 37996 ft | 436 kts | 306° |
| 2026-05-06 19:17 | 36.37804 | 128.77489 | 37985 ft | 436 kts | 306° |
| 2026-05-06 19:18 | 36.41295 | 128.71343 | 37987 ft | 436 kts | 306° |
| 2026-05-06 19:18 | 36.44784 | 128.65188 | 37985 ft | 436 kts | 306° |
| 2026-05-06 19:19 | 36.48265 | 128.59035 | 37981 ft | 435 kts | 306° |
| 2026-05-06 19:19 | 36.51740 | 128.52880 | 37974 ft | 434 kts | 306° |
| 2026-05-06 19:20 | 36.55203 | 128.46734 | 37985 ft | 434 kts | 306° |
| 2026-05-06 19:20 | 36.58662 | 128.40586 | 37982 ft | 433 kts | 306° |
| 2026-05-06 19:21 | 36.62117 | 128.34436 | 37985 ft | 433 kts | 306° |
| 2026-05-06 19:21 | 36.65579 | 128.28320 | 37982 ft | 432 kts | 307° |
| 2026-05-06 19:22 | 36.69073 | 128.22231 | 37981 ft | 432 kts | 307° |
| 2026-05-06 19:22 | 36.72548 | 128.16146 | 37987 ft | 430 kts | 307° |
| 2026-05-06 19:23 | 36.76012 | 128.10067 | 37995 ft | 430 kts | 307° |
| 2026-05-06 19:23 | 36.79472 | 128.03986 | 37981 ft | 431 kts | 307° |
| 2026-05-06 19:24 | 36.82917 | 127.97919 | 37987 ft | 432 kts | 307° |
| 2026-05-06 19:24 | 36.86378 | 127.91794 | 37997 ft | 432 kts | 306° |
| 2026-05-06 19:25 | 36.89842 | 127.85606 | 37991 ft | 431 kts | 306° |
| 2026-05-06 19:25 | 36.93250 | 127.79515 | 37981 ft | 430 kts | 306° |
| 2026-05-06 19:26 | 36.96697 | 127.73403 | 37976 ft | 429 kts | 307° |
| 2026-05-06 19:26 | 37.00137 | 127.67314 | 37988 ft | 428 kts | 306° |
| 2026-05-06 19:27 | 37.03559 | 127.61222 | 37977 ft | 428 kts | 306° |
| 2026-05-06 19:27 | 37.06956 | 127.55112 | 37982 ft | 427 kts | 306° |
| 2026-05-06 19:28 | 37.10343 | 127.49012 | 37979 ft | 426 kts | 306° |
| 2026-05-06 19:28 | 37.13723 | 127.42920 | 37991 ft | 425 kts | 306° |
| 2026-05-06 19:29 | 37.17089 | 127.36837 | 37991 ft | 424 kts | 306° |
| 2026-05-06 19:29 | 37.20447 | 127.30754 | 37991 ft | 423 kts | 306° |
| 2026-05-06 19:30 | 37.23789 | 127.24689 | 38012 ft | 422 kts | 306° |
| 2026-05-06 19:30 | 37.27123 | 127.18629 | 38037 ft | 422 kts | 306° |
| 2026-05-06 19:31 | 37.30457 | 127.12560 | 38024 ft | 422 kts | 306° |
| 2026-05-06 19:31 | 37.35471 | 127.03509 | 38040 ft | 420 kts | 306° |
| 2026-05-06 19:32 | 37.38787 | 126.97447 | 38034 ft | 420 kts | 301° |
| 2026-05-06 19:32 | 37.40858 | 126.90571 | 38043 ft | 424 kts | 287° |
| 2026-05-06 19:33 | 37.41485 | 126.83204 | 38057 ft | 431 kts | 275° |
| 2026-05-06 19:33 | 37.41382 | 126.75659 | 38044 ft | 431 kts | 274° |
| 2026-05-06 19:34 | 37.41299 | 126.68084 | 38051 ft | 430 kts | 274° |
| 2026-05-06 19:34 | 37.41255 | 126.60621 | 38036 ft | 429 kts | 275° |
| 2026-05-06 19:35 | 37.41216 | 126.53384 | 38048 ft | 429 kts | 274° |
| 2026-05-06 19:35 | 37.41166 | 126.45876 | 38055 ft | 429 kts | 274° |
| 2026-05-06 19:36 | 37.41109 | 126.38514 | 38050 ft | 429 kts | 274° |
| 2026-05-06 19:36 | 37.41047 | 126.31003 | 38048 ft | 429 kts | 274° |
| 2026-05-06 19:37 | 37.40980 | 126.23493 | 38041 ft | 429 kts | 274° |
| 2026-05-06 19:37 | 37.40913 | 126.16456 | 38038 ft | 428 kts | 274° |
| 2026-05-06 19:38 | 37.40841 | 126.09361 | 38007 ft | 426 kts | 274° |
| 2026-05-06 19:38 | 37.40761 | 126.01906 | 38021 ft | 426 kts | 274° |
| 2026-05-06 19:39 | 37.40678 | 125.94451 | 38019 ft | 427 kts | 274° |
| 2026-05-06 19:39 | 37.40589 | 125.86979 | 38014 ft | 428 kts | 274° |
| 2026-05-06 19:40 | 37.40494 | 125.79491 | 38012 ft | 429 kts | 274° |
| 2026-05-06 19:40 | 37.40396 | 125.71992 | 38016 ft | 429 kts | 274° |
| 2026-05-06 19:41 | 37.40293 | 125.64505 | 37997 ft | 427 kts | 274° |
| 2026-05-06 19:41 | 37.40193 | 125.57052 | 37997 ft | 425 kts | 274° |
| 2026-05-06 19:42 | 37.40094 | 125.49629 | 38003 ft | 424 kts | 274° |
| 2026-05-06 19:42 | 37.39989 | 125.42246 | 37990 ft | 421 kts | 274° |
| 2026-05-06 19:43 | 37.39881 | 125.34904 | 37984 ft | 419 kts | 274° |
| 2026-05-06 19:43 | 37.39769 | 125.27592 | 37985 ft | 418 kts | 274° |
| 2026-05-06 19:44 | 37.39652 | 125.20299 | 37992 ft | 416 kts | 274° |
| 2026-05-06 19:44 | 37.39531 | 125.13032 | 37976 ft | 415 kts | 274° |
| 2026-05-06 19:45 | 37.39407 | 125.05780 | 37979 ft | 414 kts | 274° |
| 2026-05-06 19:45 | 37.39279 | 124.98543 | 37970 ft | 414 kts | 274° |
| 2026-05-06 19:46 | 37.39148 | 124.91353 | 37970 ft | 414 kts | 273° |
| 2026-05-06 19:46 | 37.39011 | 124.84105 | 37971 ft | 415 kts | 273° |
| 2026-05-06 19:47 | 37.38866 | 124.76841 | 37968 ft | 416 kts | 273° |
| 2026-05-06 19:47 | 37.38716 | 124.69628 | 37975 ft | 416 kts | 273° |
| 2026-05-06 19:48 | 37.38563 | 124.62466 | 37954 ft | 415 kts | 273° |
| 2026-05-06 19:48 | 37.38405 | 124.55224 | 37958 ft | 413 kts | 273° |
| 2026-05-06 19:49 | 37.38225 | 124.48011 | 37948 ft | 414 kts | 270° |
| 2026-05-06 19:49 | 37.36906 | 124.40893 | 37950 ft | 423 kts | 257° |
| 2026-05-06 19:50 | 37.34366 | 124.34144 | 37952 ft | 434 kts | 246° |
| 2026-05-06 19:50 | 37.31075 | 124.27771 | 37947 ft | 435 kts | 245° |
| 2026-05-06 19:51 | 37.27801 | 124.21404 | 37946 ft | 433 kts | 246° |
| 2026-05-06 19:51 | 37.24574 | 124.15029 | 37933 ft | 432 kts | 245° |
| 2026-05-06 19:52 | 37.21303 | 124.08691 | 37946 ft | 434 kts | 244° |
| 2026-05-06 19:52 | 37.17958 | 124.02384 | 37942 ft | 434 kts | 244° |
| 2026-05-06 19:53 | 37.14640 | 123.96054 | 37939 ft | 434 kts | 245° |
| 2026-05-06 19:53 | 37.11364 | 123.89692 | 37933 ft | 435 kts | 245° |
| 2026-05-06 19:54 | 37.08084 | 123.83328 | 37933 ft | 435 kts | 245° |
| 2026-05-06 19:54 | 37.04791 | 123.76966 | 37951 ft | 435 kts | 245° |
| 2026-05-06 19:55 | 37.01489 | 123.70607 | 37919 ft | 436 kts | 245° |
| 2026-05-06 19:55 | 36.98185 | 123.64255 | 37942 ft | 436 kts | 245° |
| 2026-05-06 19:56 | 36.94877 | 123.57906 | 37935 ft | 436 kts | 245° |
| 2026-05-06 19:56 | 36.91585 | 123.51601 | 37939 ft | 436 kts | 245° |
| 2026-05-06 19:57 | 36.88250 | 123.45222 | 37925 ft | 436 kts | 245° |
| 2026-05-06 19:57 | 36.85141 | 123.38850 | 37929 ft | 422 kts | 256° |
| 2026-05-06 19:58 | 36.84446 | 123.35355 | 37946 ft | 411 kts | 268° |
| 2026-05-06 19:58 | 36.84297 | 123.31802 | 37949 ft | 410 kts | 276° |
| 2026-05-06 19:58 | 36.84686 | 123.28292 | 37931 ft | 407 kts | 287° |
| 2026-05-06 19:58 | 36.85521 | 123.24899 | 37940 ft | 411 kts | 289° |
| 2026-05-06 19:59 | 36.87253 | 123.18047 | 37941 ft | 416 kts | 288° |
| 2026-05-06 19:59 | 36.88955 | 123.11160 | 37933 ft | 411 kts | 288° |
| 2026-05-06 20:00 | 36.90592 | 123.04395 | 37919 ft | 404 kts | 288° |
| 2026-05-06 20:00 | 36.92207 | 122.97662 | 37927 ft | 404 kts | 288° |
| 2026-05-06 20:01 | 36.93819 | 122.90922 | 37916 ft | 405 kts | 288° |
| 2026-05-06 20:01 | 36.95427 | 122.84179 | 37933 ft | 405 kts | 287° |
| 2026-05-06 20:02 | 36.97035 | 122.77417 | 37919 ft | 406 kts | 287° |
| 2026-05-06 20:02 | 36.98641 | 122.70644 | 37905 ft | 406 kts | 287° |
| 2026-05-06 20:03 | 36.99982 | 122.65016 | 37914 ft | 406 kts | 288° |
| 2026-05-06 20:03 | 37.02183 | 122.58517 | 37913 ft | 406 kts | 294° |
| 2026-05-06 20:04 | 37.04608 | 122.52123 | 37914 ft | 406 kts | 294° |
| 2026-05-06 20:04 | 37.07006 | 122.45719 | 37910 ft | 406 kts | 294° |
| 2026-05-06 20:05 | 37.09399 | 122.39304 | 37903 ft | 406 kts | 294° |
| 2026-05-06 20:05 | 37.11788 | 122.32883 | 37915 ft | 407 kts | 293° |
| 2026-05-06 20:06 | 37.14173 | 122.26463 | 37898 ft | 407 kts | 293° |
| 2026-05-06 20:06 | 37.16557 | 122.20033 | 37903 ft | 407 kts | 293° |
| 2026-05-06 20:07 | 37.18934 | 122.13608 | 37879 ft | 406 kts | 293° |
| 2026-05-06 20:07 | 37.21308 | 122.07178 | 37895 ft | 406 kts | 293° |
| 2026-05-06 20:08 | 37.23679 | 122.00742 | 37879 ft | 406 kts | 292° |
| 2026-05-06 20:08 | 37.26045 | 121.94303 | 37868 ft | 407 kts | 292° |
| 2026-05-06 20:09 | 37.28396 | 121.87895 | 37877 ft | 407 kts | 292° |
| 2026-05-06 20:09 | 37.30759 | 121.81440 | 37864 ft | 407 kts | 292° |
| 2026-05-06 20:10 | 37.33119 | 121.74980 | 37856 ft | 408 kts | 292° |
| 2026-05-06 20:10 | 37.35484 | 121.68492 | 37848 ft | 409 kts | 292° |
| 2026-05-06 20:11 | 37.37849 | 121.61990 | 37838 ft | 409 kts | 292° |
| 2026-05-06 20:11 | 37.40215 | 121.55473 | 37841 ft | 410 kts | 292° |
| 2026-05-06 20:12 | 37.42577 | 121.48954 | 37832 ft | 410 kts | 291° |
| 2026-05-06 20:12 | 37.44941 | 121.42411 | 37835 ft | 411 kts | 291° |
| 2026-05-06 20:13 | 37.47305 | 121.35855 | 37826 ft | 411 kts | 291° |
| 2026-05-06 20:13 | 37.49666 | 121.29295 | 37819 ft | 412 kts | 291° |
| 2026-05-06 20:14 | 37.52027 | 121.22719 | 37812 ft | 412 kts | 291° |
| 2026-05-06 20:14 | 37.54383 | 121.16145 | 37812 ft | 412 kts | 291° |
| 2026-05-06 20:15 | 37.56737 | 121.09560 | 37808 ft | 412 kts | 291° |
| 2026-05-06 20:15 | 37.59087 | 121.02972 | 37803 ft | 412 kts | 291° |
| 2026-05-06 20:16 | 37.61438 | 120.96367 | 37804 ft | 412 kts | 291° |
| 2026-05-06 20:16 | 37.63768 | 120.89807 | 37786 ft | 413 kts | 291° |
| 2026-05-06 20:17 | 37.66130 | 120.83142 | 37787 ft | 414 kts | 291° |
| 2026-05-06 20:17 | 37.68460 | 120.76553 | 37789 ft | 414 kts | 291° |
| 2026-05-06 20:18 | 37.70803 | 120.69911 | 37781 ft | 415 kts | 291° |
| 2026-05-06 20:18 | 37.73148 | 120.63251 | 37781 ft | 415 kts | 291° |
| 2026-05-06 20:19 | 37.75488 | 120.56589 | 37769 ft | 415 kts | 290° |
| 2026-05-06 20:19 | 37.77827 | 120.49916 | 37776 ft | 415 kts | 290° |
| 2026-05-06 20:20 | 37.80161 | 120.43242 | 37768 ft | 415 kts | 290° |
| 2026-05-06 20:20 | 37.82493 | 120.36559 | 37760 ft | 415 kts | 290° |
| 2026-05-06 20:21 | 37.84821 | 120.29869 | 37768 ft | 416 kts | 289° |
| 2026-05-06 20:21 | 37.87156 | 120.23147 | 37763 ft | 418 kts | 289° |
| 2026-05-06 20:22 | 37.89489 | 120.16413 | 37753 ft | 418 kts | 289° |
| 2026-05-06 20:22 | 37.91824 | 120.09659 | 37771 ft | 419 kts | 289° |
| 2026-05-06 20:23 | 37.94162 | 120.02882 | 37749 ft | 420 kts | 289° |
| 2026-05-06 20:23 | 37.96501 | 119.96085 | 37744 ft | 421 kts | 289° |
| 2026-05-06 20:24 | 37.98842 | 119.89270 | 37740 ft | 421 kts | 289° |
| 2026-05-06 20:24 | 38.01175 | 119.82458 | 37769 ft | 421 kts | 288° |
| 2026-05-06 20:25 | 38.03488 | 119.75692 | 37747 ft | 420 kts | 288° |
| 2026-05-06 20:25 | 38.05807 | 119.68891 | 37738 ft | 419 kts | 288° |
| 2026-05-06 20:26 | 38.08108 | 119.62125 | 37744 ft | 417 kts | 288° |
| 2026-05-06 20:26 | 38.10401 | 119.55371 | 37741 ft | 416 kts | 288° |
| 2026-05-06 20:27 | 38.12653 | 119.48630 | 37750 ft | 414 kts | 287° |
| 2026-05-06 20:27 | 38.14852 | 119.41871 | 37746 ft | 413 kts | 287° |
| 2026-05-06 20:28 | 38.17039 | 119.35129 | 37753 ft | 413 kts | 287° |
| 2026-05-06 20:28 | 38.19208 | 119.28436 | 37411 ft | 419 kts | 287° |
| 2026-05-06 20:29 | 38.20317 | 119.25014 | 36994 ft | 417 kts | 287° |
| 2026-05-06 20:29 | 38.21419 | 119.21620 | 36620 ft | 413 kts | 287° |
| 2026-05-06 20:29 | 38.22511 | 119.18256 | 36242 ft | 409 kts | 287° |
| 2026-05-06 20:29 | 38.23590 | 119.14921 | 35862 ft | 406 kts | 287° |
| 2026-05-06 20:30 | 38.24659 | 119.11611 | 35493 ft | 405 kts | 287° |
| 2026-05-06 20:30 | 38.26808 | 119.04931 | 34797 ft | 410 kts | 287° |
| 2026-05-06 20:30 | 38.27887 | 119.01573 | 34454 ft | 410 kts | 287° |
| 2026-05-06 20:31 | 38.28966 | 118.98220 | 34100 ft | 409 kts | 287° |
| 2026-05-06 20:31 | 38.30041 | 118.94873 | 33769 ft | 408 kts | 287° |
| 2026-05-06 20:31 | 38.31110 | 118.91539 | 33380 ft | 405 kts | 288° |
| 2026-05-06 20:31 | 38.32171 | 118.88227 | 32995 ft | 403 kts | 288° |
| 2026-05-06 20:32 | 38.33224 | 118.84934 | 32614 ft | 400 kts | 288° |
| 2026-05-06 20:32 | 38.34268 | 118.81666 | 32234 ft | 396 kts | 288° |
| 2026-05-06 20:32 | 38.35303 | 118.78426 | 31802 ft | 394 kts | 288° |
| 2026-05-06 20:32 | 38.36333 | 118.75192 | 31317 ft | 393 kts | 288° |
| 2026-05-06 20:33 | 38.37357 | 118.71972 | 30839 ft | 392 kts | 288° |
| 2026-05-06 20:33 | 38.38380 | 118.68753 | 30371 ft | 390 kts | 288° |
| 2026-05-06 20:33 | 38.39391 | 118.65568 | 29925 ft | 386 kts | 288° |
| 2026-05-06 20:33 | 38.40393 | 118.62409 | 29378 ft | 382 kts | 288° |
| 2026-05-06 20:34 | 38.41381 | 118.59288 | 28850 ft | 377 kts | 288° |
| 2026-05-06 20:34 | 38.42357 | 118.56203 | 28301 ft | 373 kts | 288° |
| 2026-05-06 20:34 | 38.43318 | 118.53159 | 27784 ft | 369 kts | 288° |
| 2026-05-06 20:34 | 38.44271 | 118.50136 | 27269 ft | 366 kts | 288° |
| 2026-05-06 20:35 | 38.45202 | 118.47179 | 26777 ft | 363 kts | 288° |
| 2026-05-06 20:35 | 38.46141 | 118.44195 | 26280 ft | 364 kts | 288° |
| 2026-05-06 20:35 | 38.47112 | 118.41092 | 25835 ft | 390 kts | 288° |
| 2026-05-06 20:35 | 38.48140 | 118.37810 | 25372 ft | 401 kts | 288° |
| 2026-05-06 20:36 | 38.49182 | 118.34512 | 24903 ft | 401 kts | 288° |
| 2026-05-06 20:36 | 38.50226 | 118.31212 | 24458 ft | 401 kts | 288° |
| 2026-05-06 20:36 | 38.51267 | 118.27914 | 24010 ft | 401 kts | 288° |
| 2026-05-06 20:36 | 38.52308 | 118.24609 | 23558 ft | 401 kts | 288° |
| 2026-05-06 20:37 | 38.53344 | 118.21313 | 23065 ft | 400 kts | 288° |
| 2026-05-06 20:37 | 38.54379 | 118.18023 | 22463 ft | 397 kts | 288° |
| 2026-05-06 20:37 | 38.55402 | 118.14767 | 21802 ft | 393 kts | 288° |
| 2026-05-06 20:37 | 38.56411 | 118.11538 | 21171 ft | 390 kts | 288° |
| 2026-05-06 20:38 | 38.57413 | 118.08332 | 20553 ft | 386 kts | 288° |
| 2026-05-06 20:38 | 38.58404 | 118.05154 | 19951 ft | 383 kts | 287° |
| 2026-05-06 20:38 | 38.59393 | 118.01997 | 19346 ft | 381 kts | 288° |
| 2026-05-06 20:38 | 38.60439 | 117.98895 | 18749 ft | 380 kts | 289° |
| 2026-05-06 20:39 | 38.61527 | 117.95829 | 18191 ft | 378 kts | 289° |
| 2026-05-06 20:39 | 38.62619 | 117.92781 | 17550 ft | 376 kts | 289° |
| 2026-05-06 20:39 | 38.63699 | 117.89754 | 17048 ft | 370 kts | 289° |
| 2026-05-06 20:39 | 38.64744 | 117.86814 | 16858 ft | 357 kts | 289° |
| 2026-05-06 20:40 | 38.65750 | 117.83969 | 16803 ft | 349 kts | 289° |
| 2026-05-06 20:40 | 38.66749 | 117.81112 | 16810 ft | 352 kts | 289° |
| 2026-05-06 20:40 | 38.67745 | 117.78258 | 16794 ft | 350 kts | 289° |
| 2026-05-06 20:40 | 38.68718 | 117.75467 | 16793 ft | 346 kts | 289° |
| 2026-05-06 20:41 | 38.69707 | 117.72625 | 16803 ft | 345 kts | 289° |
| 2026-05-06 20:41 | 38.70685 | 117.69812 | 16815 ft | 346 kts | 289° |
| 2026-05-06 20:41 | 38.71663 | 117.66995 | 16816 ft | 346 kts | 289° |
| 2026-05-06 20:41 | 38.72629 | 117.64210 | 16811 ft | 347 kts | 289° |
| 2026-05-06 20:42 | 38.73608 | 117.61386 | 16814 ft | 347 kts | 289° |
| 2026-05-06 20:42 | 38.74598 | 117.58527 | 16817 ft | 347 kts | 289° |
| 2026-05-06 20:42 | 38.75564 | 117.55736 | 16822 ft | 347 kts | 289° |
| 2026-05-06 20:42 | 38.76543 | 117.52904 | 16823 ft | 348 kts | 289° |
| 2026-05-06 20:43 | 38.77522 | 117.50071 | 16820 ft | 347 kts | 289° |
| 2026-05-06 20:43 | 38.78482 | 117.47296 | 16818 ft | 334 kts | 289° |
| 2026-05-06 20:43 | 38.79403 | 117.44638 | 16811 ft | 318 kts | 288° |
| 2026-05-06 20:43 | 38.80280 | 117.42104 | 16803 ft | 304 kts | 288° |
| 2026-05-06 20:44 | 38.81121 | 117.39658 | 16601 ft | 297 kts | 288° |
| 2026-05-06 20:44 | 38.81944 | 117.37251 | 16402 ft | 294 kts | 288° |
| 2026-05-06 20:44 | 38.82764 | 117.34855 | 16216 ft | 293 kts | 288° |
| 2026-05-06 20:44 | 38.83584 | 117.32462 | 16013 ft | 293 kts | 288° |
| 2026-05-06 20:45 | 38.84403 | 117.30077 | 15922 ft | 292 kts | 288° |
| 2026-05-06 20:45 | 38.85249 | 117.27709 | 15871 ft | 293 kts | 294° |
| 2026-05-06 20:45 | 38.86625 | 117.25695 | 15856 ft | 310 kts | 315° |
| 2026-05-06 20:45 | 38.88558 | 117.24348 | 15853 ft | 324 kts | 333° |
| 2026-05-06 20:46 | 38.90700 | 117.23419 | 15851 ft | 325 kts | 335° |
| 2026-05-06 20:46 | 38.92852 | 117.22519 | 15848 ft | 326 kts | 335° |
| 2026-05-06 20:46 | 38.95007 | 117.21610 | 15848 ft | 326 kts | 335° |
| 2026-05-06 20:46 | 38.97153 | 117.20685 | 15852 ft | 325 kts | 335° |
| 2026-05-06 20:47 | 38.99292 | 117.19749 | 15853 ft | 325 kts | 334° |
| 2026-05-06 20:47 | 39.01431 | 117.18807 | 15852 ft | 324 kts | 334° |
| 2026-05-06 20:47 | 39.03564 | 117.17865 | 15840 ft | 322 kts | 334° |
| 2026-05-06 20:47 | 39.05651 | 117.16948 | 15829 ft | 311 kts | 334° |
| 2026-05-06 20:48 | 39.07647 | 117.16070 | 15571 ft | 307 kts | 334° |
| 2026-05-06 20:48 | 39.09665 | 117.15175 | 15193 ft | 307 kts | 335° |
| 2026-05-06 20:48 | 39.11681 | 117.14279 | 14860 ft | 306 kts | 335° |
| 2026-05-06 20:48 | 39.13690 | 117.13386 | 14513 ft | 305 kts | 335° |
| 2026-05-06 20:49 | 39.15716 | 117.12486 | 14184 ft | 303 kts | 335° |
| 2026-05-06 20:49 | 39.17692 | 117.11609 | 13942 ft | 298 kts | 336° |
| 2026-05-06 20:49 | 39.19636 | 117.10745 | 13703 ft | 293 kts | 336° |
| 2026-05-06 20:49 | 39.21554 | 117.09893 | 13447 ft | 289 kts | 336° |
| 2026-05-06 20:50 | 39.23412 | 117.09066 | 13171 ft | 285 kts | 336° |
| 2026-05-06 20:50 | 39.25269 | 117.08239 | 12916 ft | 280 kts | 336° |
| 2026-05-06 20:50 | 39.27100 | 117.07424 | 12671 ft | 275 kts | 336° |
| 2026-05-06 20:50 | 39.28885 | 117.06627 | 12485 ft | 268 kts | 336° |
| 2026-05-06 20:51 | 39.30631 | 117.05847 | 12293 ft | 262 kts | 336° |
| 2026-05-06 20:51 | 39.32332 | 117.05087 | 12096 ft | 256 kts | 336° |
| 2026-05-06 20:51 | 39.33994 | 117.04346 | 11960 ft | 249 kts | 335° |
| 2026-05-06 20:51 | 39.35614 | 117.03624 | 11894 ft | 245 kts | 335° |
| 2026-05-06 20:52 | 39.37225 | 117.02902 | 11868 ft | 247 kts | 335° |
| 2026-05-06 20:52 | 39.38857 | 117.02170 | 11867 ft | 250 kts | 335° |
| 2026-05-06 20:52 | 39.40504 | 117.01432 | 11849 ft | 250 kts | 335° |
| 2026-05-06 20:52 | 39.42146 | 117.00698 | 11666 ft | 249 kts | 335° |
| 2026-05-06 20:53 | 39.43777 | 116.99968 | 11405 ft | 247 kts | 335° |
| 2026-05-06 20:53 | 39.45390 | 116.99247 | 11139 ft | 244 kts | 335° |
| 2026-05-06 20:53 | 39.46449 | 116.98773 | 10958 ft | 242 kts | 335° |
| 2026-05-06 20:53 | 39.48036 | 116.98059 | 10680 ft | 240 kts | 336° |
| 2026-05-06 20:54 | 39.49607 | 116.97355 | 10404 ft | 238 kts | 336° |
| 2026-05-06 20:54 | 39.51166 | 116.96654 | 10133 ft | 236 kts | 336° |
| 2026-05-06 20:54 | 39.52712 | 116.95957 | 9859 ft | 234 kts | 336° |
| 2026-05-06 20:54 | 39.54243 | 116.95269 | 9596 ft | 232 kts | 336° |
| 2026-05-06 20:55 | 39.55762 | 116.94585 | 9283 ft | 231 kts | 336° |
| 2026-05-06 20:55 | 39.57261 | 116.93909 | 9101 ft | 225 kts | 337° |
| 2026-05-06 20:55 | 39.58729 | 116.93250 | 8811 ft | 223 kts | 337° |
| 2026-05-06 20:55 | 39.60201 | 116.92588 | 8451 ft | 224 kts | 338° |
| 2026-05-06 20:56 | 39.61579 | 116.91714 | 7983 ft | 222 kts | 319° |
| 2026-05-06 20:56 | 39.62666 | 116.90283 | 7516 ft | 225 kts | 315° |
| 2026-05-06 20:56 | 39.63758 | 116.88836 | 7212 ft | 224 kts | 316° |
| 2026-05-06 20:56 | 39.64856 | 116.87394 | 6867 ft | 225 kts | 316° |
| 2026-05-06 20:57 | 39.65952 | 116.85952 | 6571 ft | 224 kts | 316° |
| 2026-05-06 20:57 | 39.67036 | 116.84521 | 6307 ft | 222 kts | 316° |
| 2026-05-06 20:57 | 39.68111 | 116.83099 | 6008 ft | 219 kts | 316° |
| 2026-05-06 20:57 | 39.69183 | 116.81681 | 5466 ft | 223 kts | 317° |
| 2026-05-06 20:58 | 39.70282 | 116.80225 | 4898 ft | 228 kts | 317° |
| 2026-05-06 20:58 | 39.71384 | 116.78767 | 4596 ft | 220 kts | 317° |
| 2026-05-06 20:58 | 39.72417 | 116.77392 | 4488 ft | 206 kts | 317° |
| 2026-05-06 20:58 | 39.73391 | 116.76099 | 4311 ft | 194 kts | 317° |
| 2026-05-06 20:59 | 39.74316 | 116.74872 | 4260 ft | 192 kts | 318° |
| 2026-05-06 20:59 | 39.75257 | 116.73622 | 4256 ft | 193 kts | 317° |
| 2026-05-06 20:59 | 39.76181 | 116.72395 | 4232 ft | 187 kts | 318° |
| 2026-05-06 20:59 | 39.77089 | 116.71189 | 4250 ft | 187 kts | 318° |
| 2026-05-06 21:00 | 39.77999 | 116.69979 | 4252 ft | 188 kts | 317° |
| 2026-05-06 21:00 | 39.78916 | 116.68755 | 4233 ft | 189 kts | 318° |
| 2026-05-06 21:00 | 39.79841 | 116.67527 | 4235 ft | 191 kts | 318° |
| 2026-05-06 21:00 | 39.80766 | 116.66299 | 4256 ft | 189 kts | 318° |
| 2026-05-06 21:01 | 39.81690 | 116.65065 | 4249 ft | 191 kts | 317° |
| 2026-05-06 21:01 | 39.82729 | 116.64057 | 4135 ft | 186 kts | 344° |
| 2026-05-06 21:01 | 39.83978 | 116.63660 | 3995 ft | 186 kts | 348° |
| 2026-05-06 21:01 | 39.85241 | 116.63290 | 3927 ft | 187 kts | 350° |
| 2026-05-06 21:02 | 39.86522 | 116.63013 | 3782 ft | 186 kts | 353° |
| 2026-05-06 21:02 | 39.87804 | 116.62790 | 3535 ft | 185 kts | 354° |
| 2026-05-06 21:02 | 39.89075 | 116.62588 | 3300 ft | 184 kts | 355° |
| 2026-05-06 21:02 | 39.90355 | 116.62387 | 3077 ft | 186 kts | 356° |
| 2026-05-06 21:03 | 39.91638 | 116.62185 | 2827 ft | 185 kts | 356° |
| 2026-05-06 21:03 | 39.92916 | 116.61989 | 2588 ft | 190 kts | 356° |
| 2026-05-06 21:03 | 39.94258 | 116.61781 | 2346 ft | 193 kts | 356° |
| 2026-05-06 21:03 | 39.95587 | 116.61574 | 2076 ft | 195 kts | 355° |
| 2026-05-06 21:04 | 39.96911 | 116.61361 | 1843 ft | 188 kts | 355° |
| 2026-05-06 21:04 | 39.98209 | 116.61159 | 1575 ft | 188 kts | 355° |
| 2026-05-06 21:04 | 39.99470 | 116.60964 | 1316 ft | 175 kts | 355° |
| 2026-05-06 21:04 | 40.00624 | 116.60783 | 1094 ft | 161 kts | 355° |
| 2026-05-06 21:05 | 40.01708 | 116.60620 | 887 ft | 155 kts | 355° |
| 2026-05-06 21:05 | 40.02771 | 116.60457 | 712 ft | 152 kts | 353° |
| 2026-05-06 21:05 | 40.03830 | 116.60285 | 520 ft | 154 kts | 354° |
| 2026-05-06 21:05 | 40.04888 | 116.60118 | 325 ft | 152 kts | 354° |
| 2026-05-06 21:06 | 40.05930 | 116.59953 | 140 ft | 148 kts | 354° |
| 2026-05-06 21:06 | 40.06858 | 116.59811 | 124 ft | 112 kts | 353° |
| 2026-05-06 21:06 | 40.07438 | 116.59719 | 126 ft | 56 kts | 353° |
| 2026-05-06 21:06 | 40.07699 | 116.59749 | 126 ft | 23 kts | 21° |
| 2026-05-06 21:07 | 40.07801 | 116.59804 | 124 ft | 9 kts | 26° |
| 2026-05-06 21:07 | 40.07816 | 116.59878 | 126 ft | 9 kts | 91° |
| 2026-05-06 21:07 | 40.07817 | 116.59965 | 126 ft | 10 kts | 103° |
| 2026-05-06 21:07 | 40.07759 | 116.60010 | 130 ft | 10 kts | 167° |
| 2026-05-06 21:08 | 40.07687 | 116.60028 | 126 ft | 11 kts | 171° |
| 2026-05-06 21:08 | 40.07631 | 116.60081 | 124 ft | 11 kts | 112° |
| 2026-05-06 21:08 | 40.07602 | 116.60171 | 123 ft | 9 kts | 115° |
| 2026-05-06 21:08 | 40.07576 | 116.60227 | 123 ft | 8 kts | 127° |
| 2026-05-06 21:09 | 40.07582 | 116.60288 | 124 ft | 8 kts | 43° |
| 2026-05-06 21:09 | 40.07615 | 116.60326 | 127 ft | 3 kts | 42° |
| 2026-05-06 21:09 | 40.07623 | 116.60336 | 124 ft | 1 kts | 42° |